CAI9106 LTAI-OEJN
Flight info
| Callsign | CAI9106 |
|---|---|
| Flight time | 2h 47m |
| Altitude | 35000 |
| Route | TOMBI M855 RASDA A16 CVO A727 LXR M999 MUVOL |
| Aircraft | B738/M-SDE2E3FGHIRWXY/LB1 |
Departure
| Time | 2026-05-07 10:43 |
|---|---|
| Airport | Antalya International Airport (LTAI) |
Arrival
| Time | 2026-05-07 13:31 |
|---|---|
| Airport | King Abdulaziz International Airport (OEJN) |
| Time | Latitude | Longitude | Altitude | Speed | Heading |
|---|---|---|---|---|---|
| 2026-05-07 10:25 | 36.89848 | 30.79766 | 177 ft | 0 kts | 96° |
| 2026-05-07 10:33 | 36.89849 | 30.79763 | 177 ft | 2 kts | 96° |
| 2026-05-07 10:33 | 36.89850 | 30.79744 | 177 ft | 2 kts | 96° |
| 2026-05-07 10:33 | 36.89852 | 30.79725 | 177 ft | 2 kts | 95° |
| 2026-05-07 10:34 | 36.89857 | 30.79707 | 177 ft | 2 kts | 129° |
| 2026-05-07 10:34 | 36.89868 | 30.79696 | 177 ft | 2 kts | 156° |
| 2026-05-07 10:34 | 36.89883 | 30.79692 | 177 ft | 1 kts | 184° |
| 2026-05-07 10:34 | 36.89890 | 30.79693 | 177 ft | 1 kts | 193° |
| 2026-05-07 10:35 | 36.89892 | 30.79694 | 177 ft | 0 kts | 191° |
| 2026-05-07 10:36 | 36.89889 | 30.79693 | 177 ft | 1 kts | 191° |
| 2026-05-07 10:37 | 36.89888 | 30.79693 | 177 ft | 0 kts | 191° |
| 2026-05-07 10:37 | 36.89823 | 30.79678 | 177 ft | 13 kts | 190° |
| 2026-05-07 10:37 | 36.89733 | 30.79659 | 177 ft | 15 kts | 188° |
| 2026-05-07 10:37 | 36.89625 | 30.79692 | 177 ft | 14 kts | 127° |
| 2026-05-07 10:38 | 36.89621 | 30.79869 | 177 ft | 27 kts | 96° |
| 2026-05-07 10:38 | 36.89608 | 30.80106 | 179 ft | 26 kts | 88° |
| 2026-05-07 10:38 | 36.89601 | 30.80323 | 180 ft | 24 kts | 98° |
| 2026-05-07 10:38 | 36.89574 | 30.80530 | 176 ft | 24 kts | 99° |
| 2026-05-07 10:39 | 36.89501 | 30.80673 | 174 ft | 18 kts | 192° |
| 2026-05-07 10:39 | 36.89384 | 30.80661 | 174 ft | 15 kts | 183° |
| 2026-05-07 10:39 | 36.89279 | 30.80652 | 174 ft | 14 kts | 184° |
| 2026-05-07 10:39 | 36.89185 | 30.80641 | 174 ft | 12 kts | 186° |
| 2026-05-07 10:40 | 36.89104 | 30.80631 | 174 ft | 11 kts | 185° |
| 2026-05-07 10:40 | 36.88994 | 30.80617 | 175 ft | 23 kts | 187° |
| 2026-05-07 10:40 | 36.88835 | 30.80595 | 175 ft | 22 kts | 186° |
| 2026-05-07 10:40 | 36.88685 | 30.80570 | 173 ft | 21 kts | 188° |
| 2026-05-07 10:41 | 36.88538 | 30.80546 | 170 ft | 21 kts | 186° |
| 2026-05-07 10:41 | 36.88394 | 30.80530 | 170 ft | 19 kts | 185° |
| 2026-05-07 10:41 | 36.88261 | 30.80512 | 167 ft | 19 kts | 185° |
| 2026-05-07 10:41 | 36.88155 | 30.80577 | 164 ft | 18 kts | 111° |
| 2026-05-07 10:42 | 36.88173 | 30.80712 | 163 ft | 15 kts | 32° |
| 2026-05-07 10:42 | 36.88267 | 30.80749 | 164 ft | 13 kts | 6° |
| 2026-05-07 10:42 | 36.88430 | 30.80768 | 164 ft | 42 kts | 7° |
| 2026-05-07 10:42 | 36.88963 | 30.80843 | 173 ft | 115 kts | 6° |
| 2026-05-07 10:43 | 36.90040 | 30.80988 | 178 ft | 188 kts | 7° |
| 2026-05-07 10:43 | 36.91437 | 30.81225 | 783 ft | 210 kts | 8° |
| 2026-05-07 10:43 | 36.92840 | 30.81661 | 1511 ft | 218 kts | 22° |
| 2026-05-07 10:43 | 36.94247 | 30.82480 | 2227 ft | 223 kts | 26° |
| 2026-05-07 10:44 | 36.95644 | 30.83283 | 2936 ft | 226 kts | 24° |
| 2026-05-07 10:44 | 36.97065 | 30.84146 | 3722 ft | 227 kts | 32° |
| 2026-05-07 10:44 | 36.98202 | 30.85490 | 4406 ft | 232 kts | 60° |
| 2026-05-07 10:44 | 36.98665 | 30.87441 | 4967 ft | 244 kts | 88° |
| 2026-05-07 10:45 | 36.98537 | 30.89611 | 5503 ft | 256 kts | 96° |
| 2026-05-07 10:45 | 36.98323 | 30.91871 | 5999 ft | 269 kts | 95° |
| 2026-05-07 10:45 | 36.98121 | 30.94241 | 6644 ft | 277 kts | 94° |
| 2026-05-07 10:45 | 36.97929 | 30.96642 | 7359 ft | 281 kts | 94° |
| 2026-05-07 10:46 | 36.97731 | 30.99109 | 7863 ft | 287 kts | 94° |
| 2026-05-07 10:46 | 36.97497 | 31.01592 | 7987 ft | 287 kts | 98° |
| 2026-05-07 10:46 | 36.96892 | 31.03990 | 7997 ft | 286 kts | 117° |
| 2026-05-07 10:46 | 36.95644 | 31.05933 | 8012 ft | 288 kts | 139° |
| 2026-05-07 10:47 | 36.93940 | 31.07347 | 8116 ft | 300 kts | 152° |
| 2026-05-07 10:47 | 36.92006 | 31.08248 | 9026 ft | 296 kts | 168° |
| 2026-05-07 10:47 | 36.89931 | 31.08373 | 9709 ft | 301 kts | 185° |
| 2026-05-07 10:47 | 36.87833 | 31.08062 | 10352 ft | 307 kts | 188° |
| 2026-05-07 10:48 | 36.85641 | 31.07672 | 10719 ft | 323 kts | 188° |
| 2026-05-07 10:48 | 36.83381 | 31.07297 | 11327 ft | 330 kts | 188° |
| 2026-05-07 10:48 | 36.81084 | 31.06953 | 11974 ft | 335 kts | 187° |
| 2026-05-07 10:48 | 36.78767 | 31.06627 | 12685 ft | 338 kts | 187° |
| 2026-05-07 10:49 | 36.76399 | 31.06295 | 13302 ft | 345 kts | 187° |
| 2026-05-07 10:49 | 36.73981 | 31.05951 | 14010 ft | 349 kts | 187° |
| 2026-05-07 10:49 | 36.71530 | 31.05598 | 14666 ft | 354 kts | 188° |
| 2026-05-07 10:49 | 36.69072 | 31.05243 | 15382 ft | 357 kts | 188° |
| 2026-05-07 10:50 | 36.66592 | 31.04884 | 16071 ft | 361 kts | 188° |
| 2026-05-07 10:50 | 36.64090 | 31.04522 | 16701 ft | 366 kts | 189° |
| 2026-05-07 10:50 | 36.61541 | 31.04155 | 17361 ft | 369 kts | 188° |
| 2026-05-07 10:50 | 36.58951 | 31.03782 | 17956 ft | 374 kts | 189° |
| 2026-05-07 10:51 | 36.56358 | 31.03419 | 18607 ft | 377 kts | 189° |
| 2026-05-07 10:51 | 36.53727 | 31.03052 | 19207 ft | 381 kts | 190° |
| 2026-05-07 10:51 | 36.51089 | 31.02508 | 19802 ft | 382 kts | 197° |
| 2026-05-07 10:51 | 36.48596 | 31.01497 | 20394 ft | 380 kts | 207° |
| 2026-05-07 10:52 | 36.46172 | 31.00109 | 20962 ft | 382 kts | 211° |
| 2026-05-07 10:52 | 36.43823 | 30.98584 | 21547 ft | 383 kts | 213° |
| 2026-05-07 10:52 | 36.41456 | 30.96989 | 22062 ft | 387 kts | 214° |
| 2026-05-07 10:52 | 36.39077 | 30.95386 | 22647 ft | 388 kts | 213° |
| 2026-05-07 10:53 | 36.36680 | 30.93787 | 23183 ft | 391 kts | 214° |
| 2026-05-07 10:53 | 36.34278 | 30.92203 | 23634 ft | 396 kts | 213° |
| 2026-05-07 10:53 | 36.31816 | 30.90595 | 24188 ft | 398 kts | 213° |
| 2026-05-07 10:53 | 36.29344 | 30.88994 | 24696 ft | 400 kts | 213° |
| 2026-05-07 10:54 | 36.26849 | 30.87383 | 25195 ft | 403 kts | 213° |
| 2026-05-07 10:54 | 36.24363 | 30.85783 | 25649 ft | 406 kts | 213° |
| 2026-05-07 10:54 | 36.21819 | 30.84186 | 26093 ft | 410 kts | 211° |
| 2026-05-07 10:54 | 36.19123 | 30.82806 | 26588 ft | 416 kts | 202° |
| 2026-05-07 10:55 | 36.16277 | 30.81963 | 26974 ft | 425 kts | 192° |
| 2026-05-07 10:55 | 36.13313 | 30.81681 | 27482 ft | 429 kts | 185° |
| 2026-05-07 10:55 | 36.10276 | 30.81719 | 27837 ft | 435 kts | 181° |
| 2026-05-07 10:55 | 36.07250 | 30.81897 | 28304 ft | 436 kts | 180° |
| 2026-05-07 10:56 | 36.04213 | 30.82114 | 28722 ft | 438 kts | 180° |
| 2026-05-07 10:56 | 36.01146 | 30.82348 | 29085 ft | 441 kts | 179° |
| 2026-05-07 10:56 | 35.98081 | 30.82600 | 29484 ft | 443 kts | 179° |
| 2026-05-07 10:56 | 35.94973 | 30.82856 | 29885 ft | 445 kts | 179° |
| 2026-05-07 10:57 | 35.91881 | 30.83095 | 30221 ft | 448 kts | 180° |
| 2026-05-07 10:57 | 35.88746 | 30.83319 | 30614 ft | 449 kts | 180° |
| 2026-05-07 10:57 | 35.85596 | 30.83529 | 30970 ft | 451 kts | 180° |
| 2026-05-07 10:57 | 35.82466 | 30.83728 | 31216 ft | 455 kts | 180° |
| 2026-05-07 10:58 | 35.79255 | 30.83927 | 31622 ft | 455 kts | 180° |
| 2026-05-07 10:58 | 35.76059 | 30.84119 | 31929 ft | 458 kts | 181° |
| 2026-05-07 10:58 | 35.72886 | 30.84310 | 32208 ft | 461 kts | 181° |
| 2026-05-07 10:58 | 35.69630 | 30.84506 | 32608 ft | 461 kts | 181° |
| 2026-05-07 10:59 | 35.66403 | 30.84699 | 32859 ft | 464 kts | 181° |
| 2026-05-07 10:59 | 35.63131 | 30.84895 | 33187 ft | 466 kts | 181° |
| 2026-05-07 10:59 | 35.59888 | 30.85081 | 33499 ft | 467 kts | 181° |
| 2026-05-07 10:59 | 35.56548 | 30.85230 | 33767 ft | 470 kts | 182° |
| 2026-05-07 11:00 | 35.53268 | 30.85342 | 34046 ft | 472 kts | 182° |
| 2026-05-07 11:00 | 35.49952 | 30.85441 | 34345 ft | 474 kts | 182° |
| 2026-05-07 11:00 | 35.46599 | 30.85538 | 34562 ft | 476 kts | 182° |
| 2026-05-07 11:00 | 35.43275 | 30.85637 | 34873 ft | 475 kts | 182° |
| 2026-05-07 11:01 | 35.39967 | 30.85740 | 35114 ft | 476 kts | 182° |
| 2026-05-07 11:01 | 35.36655 | 30.85844 | 35143 ft | 477 kts | 182° |
| 2026-05-07 11:01 | 35.30012 | 30.86061 | 35152 ft | 474 kts | 182° |
| 2026-05-07 11:02 | 35.23423 | 30.86282 | 35150 ft | 474 kts | 182° |
| 2026-05-07 11:02 | 35.16827 | 30.86500 | 35151 ft | 474 kts | 182° |
| 2026-05-07 11:03 | 35.10232 | 30.86719 | 35152 ft | 473 kts | 183° |
| 2026-05-07 11:03 | 35.03640 | 30.86938 | 35153 ft | 475 kts | 183° |
| 2026-05-07 11:04 | 34.96995 | 30.87159 | 35151 ft | 474 kts | 182° |
| 2026-05-07 11:04 | 34.90412 | 30.87379 | 35153 ft | 474 kts | 182° |
| 2026-05-07 11:05 | 34.83847 | 30.87598 | 35151 ft | 473 kts | 183° |
| 2026-05-07 11:05 | 34.77225 | 30.87814 | 35150 ft | 475 kts | 182° |
| 2026-05-07 11:06 | 34.70616 | 30.88030 | 35149 ft | 473 kts | 183° |
| 2026-05-07 11:06 | 34.64053 | 30.88247 | 35151 ft | 472 kts | 183° |
| 2026-05-07 11:07 | 34.57488 | 30.88491 | 35148 ft | 473 kts | 182° |
| 2026-05-07 11:07 | 34.50899 | 30.88812 | 35152 ft | 475 kts | 182° |
| 2026-05-07 11:08 | 34.44334 | 30.89154 | 35151 ft | 474 kts | 182° |
| 2026-05-07 11:08 | 34.37717 | 30.89495 | 35149 ft | 474 kts | 182° |
| 2026-05-07 11:09 | 34.31151 | 30.89821 | 35150 ft | 472 kts | 181° |
| 2026-05-07 11:09 | 34.24598 | 30.90142 | 35150 ft | 472 kts | 181° |
| 2026-05-07 11:10 | 34.18016 | 30.90479 | 35150 ft | 473 kts | 181° |
| 2026-05-07 11:10 | 34.11440 | 30.90842 | 35151 ft | 473 kts | 181° |
| 2026-05-07 11:11 | 34.04866 | 30.91221 | 35148 ft | 472 kts | 181° |
| 2026-05-07 11:11 | 33.98320 | 30.91595 | 35151 ft | 473 kts | 181° |
| 2026-05-07 11:12 | 33.91745 | 30.91946 | 35152 ft | 471 kts | 182° |
| 2026-05-07 11:12 | 33.85214 | 30.92208 | 35151 ft | 471 kts | 182° |
| 2026-05-07 11:13 | 33.78632 | 30.92433 | 35152 ft | 472 kts | 182° |
| 2026-05-07 11:13 | 33.72088 | 30.92664 | 35152 ft | 473 kts | 182° |
| 2026-05-07 11:14 | 33.65529 | 30.92904 | 35145 ft | 471 kts | 182° |
| 2026-05-07 11:14 | 33.58985 | 30.93151 | 35144 ft | 472 kts | 182° |
| 2026-05-07 11:15 | 33.52384 | 30.93402 | 35140 ft | 471 kts | 182° |
| 2026-05-07 11:15 | 33.45867 | 30.93647 | 35142 ft | 472 kts | 182° |
| 2026-05-07 11:16 | 33.39277 | 30.93894 | 35138 ft | 472 kts | 182° |
| 2026-05-07 11:16 | 33.32740 | 30.94143 | 35142 ft | 472 kts | 182° |
| 2026-05-07 11:17 | 33.26183 | 30.94393 | 35134 ft | 471 kts | 182° |
| 2026-05-07 11:17 | 33.19631 | 30.94638 | 35135 ft | 470 kts | 182° |
| 2026-05-07 11:18 | 33.13087 | 30.94883 | 35136 ft | 472 kts | 182° |
| 2026-05-07 11:18 | 33.06522 | 30.95215 | 35136 ft | 474 kts | 179° |
| 2026-05-07 11:19 | 32.99921 | 30.95932 | 35132 ft | 473 kts | 177° |
| 2026-05-07 11:19 | 32.93367 | 30.96761 | 35134 ft | 475 kts | 177° |
| 2026-05-07 11:20 | 32.86826 | 30.97558 | 35130 ft | 473 kts | 178° |
| 2026-05-07 11:20 | 32.80290 | 30.98313 | 35127 ft | 472 kts | 178° |
| 2026-05-07 11:21 | 32.73737 | 30.99047 | 35130 ft | 472 kts | 178° |
| 2026-05-07 11:21 | 32.67192 | 30.99775 | 35120 ft | 472 kts | 178° |
| 2026-05-07 11:22 | 32.60624 | 31.00503 | 35123 ft | 473 kts | 178° |
| 2026-05-07 11:22 | 32.54116 | 31.01227 | 35124 ft | 470 kts | 178° |
| 2026-05-07 11:23 | 32.47578 | 31.01946 | 35121 ft | 472 kts | 178° |
| 2026-05-07 11:23 | 32.41058 | 31.02664 | 35115 ft | 472 kts | 178° |
| 2026-05-07 11:24 | 32.34510 | 31.03389 | 35111 ft | 472 kts | 178° |
| 2026-05-07 11:24 | 32.27979 | 31.04111 | 35105 ft | 472 kts | 178° |
| 2026-05-07 11:25 | 32.21413 | 31.04841 | 35108 ft | 472 kts | 178° |
| 2026-05-07 11:25 | 32.14883 | 31.05564 | 35113 ft | 472 kts | 178° |
| 2026-05-07 11:26 | 32.08371 | 31.06283 | 35110 ft | 470 kts | 177° |
| 2026-05-07 11:26 | 32.01852 | 31.06997 | 35114 ft | 470 kts | 178° |
| 2026-05-07 11:27 | 31.95322 | 31.07703 | 35109 ft | 470 kts | 177° |
| 2026-05-07 11:27 | 31.88774 | 31.08401 | 35109 ft | 474 kts | 177° |
| 2026-05-07 11:28 | 31.82240 | 31.09100 | 35107 ft | 470 kts | 177° |
| 2026-05-07 11:28 | 31.75742 | 31.09796 | 35098 ft | 468 kts | 177° |
| 2026-05-07 11:29 | 31.69235 | 31.10493 | 35094 ft | 470 kts | 178° |
| 2026-05-07 11:29 | 31.62755 | 31.11186 | 35093 ft | 468 kts | 177° |
| 2026-05-07 11:30 | 31.56254 | 31.11880 | 35092 ft | 469 kts | 178° |
| 2026-05-07 11:30 | 31.49755 | 31.12651 | 35082 ft | 469 kts | 175° |
| 2026-05-07 11:31 | 31.43296 | 31.13841 | 35080 ft | 468 kts | 172° |
| 2026-05-07 11:31 | 31.36861 | 31.15141 | 35078 ft | 469 kts | 172° |
| 2026-05-07 11:32 | 31.27208 | 31.17023 | 35072 ft | 468 kts | 173° |
| 2026-05-07 11:33 | 31.20749 | 31.18245 | 35066 ft | 468 kts | 173° |
| 2026-05-07 11:33 | 31.14339 | 31.19446 | 35069 ft | 468 kts | 173° |
| 2026-05-07 11:34 | 31.07899 | 31.20647 | 35058 ft | 467 kts | 173° |
| 2026-05-07 11:34 | 31.01457 | 31.21847 | 35065 ft | 468 kts | 173° |
| 2026-05-07 11:35 | 30.95027 | 31.23032 | 35052 ft | 468 kts | 173° |
| 2026-05-07 11:35 | 30.88628 | 31.24221 | 35059 ft | 468 kts | 173° |
| 2026-05-07 11:36 | 30.82167 | 31.25420 | 35054 ft | 469 kts | 173° |
| 2026-05-07 11:36 | 30.75726 | 31.26617 | 35049 ft | 470 kts | 173° |
| 2026-05-07 11:37 | 30.69254 | 31.27813 | 35064 ft | 470 kts | 173° |
| 2026-05-07 11:37 | 30.62797 | 31.28998 | 35056 ft | 470 kts | 173° |
| 2026-05-07 11:38 | 30.56312 | 31.30187 | 35054 ft | 470 kts | 173° |
| 2026-05-07 11:38 | 30.49874 | 31.31372 | 35054 ft | 471 kts | 173° |
| 2026-05-07 11:39 | 30.43366 | 31.32573 | 35057 ft | 473 kts | 173° |
| 2026-05-07 11:39 | 30.36887 | 31.33767 | 35050 ft | 472 kts | 173° |
| 2026-05-07 11:40 | 30.30386 | 31.34958 | 35059 ft | 473 kts | 173° |
| 2026-05-07 11:40 | 30.23871 | 31.36151 | 35062 ft | 473 kts | 173° |
| 2026-05-07 11:41 | 30.17362 | 31.37342 | 35067 ft | 473 kts | 173° |
| 2026-05-07 11:41 | 30.10842 | 31.38532 | 35064 ft | 474 kts | 173° |
| 2026-05-07 11:42 | 30.04399 | 31.40155 | 35065 ft | 476 kts | 166° |
| 2026-05-07 11:42 | 29.97998 | 31.42317 | 35073 ft | 476 kts | 164° |
| 2026-05-07 11:43 | 29.91688 | 31.44528 | 35076 ft | 477 kts | 165° |
| 2026-05-07 11:43 | 29.85317 | 31.46714 | 35074 ft | 475 kts | 165° |
| 2026-05-07 11:44 | 29.78944 | 31.48851 | 35064 ft | 474 kts | 165° |
| 2026-05-07 11:44 | 29.72621 | 31.50948 | 35064 ft | 474 kts | 165° |
| 2026-05-07 11:45 | 29.66288 | 31.53039 | 35064 ft | 474 kts | 165° |
| 2026-05-07 11:45 | 29.59968 | 31.55111 | 35055 ft | 472 kts | 165° |
| 2026-05-07 11:46 | 29.53599 | 31.57189 | 35061 ft | 474 kts | 165° |
| 2026-05-07 11:46 | 29.47317 | 31.59239 | 35061 ft | 471 kts | 166° |
| 2026-05-07 11:47 | 29.40977 | 31.61307 | 35055 ft | 471 kts | 165° |
| 2026-05-07 11:47 | 29.34676 | 31.63362 | 35057 ft | 471 kts | 165° |
| 2026-05-07 11:48 | 29.28370 | 31.65415 | 35054 ft | 471 kts | 166° |
| 2026-05-07 11:48 | 29.22067 | 31.67466 | 35053 ft | 471 kts | 166° |
| 2026-05-07 11:49 | 29.15749 | 31.69516 | 35048 ft | 471 kts | 166° |
| 2026-05-07 11:49 | 29.09476 | 31.71549 | 35046 ft | 469 kts | 166° |
| 2026-05-07 11:50 | 29.03186 | 31.73587 | 35030 ft | 468 kts | 166° |
| 2026-05-07 11:50 | 28.96910 | 31.75615 | 35024 ft | 468 kts | 166° |
| 2026-05-07 11:51 | 28.90628 | 31.77622 | 35029 ft | 468 kts | 166° |
| 2026-05-07 11:51 | 28.84370 | 31.79604 | 35019 ft | 468 kts | 166° |
| 2026-05-07 11:52 | 28.78089 | 31.81592 | 35022 ft | 468 kts | 166° |
| 2026-05-07 11:52 | 28.71815 | 31.83579 | 35023 ft | 466 kts | 166° |
| 2026-05-07 11:53 | 28.65596 | 31.85548 | 35029 ft | 467 kts | 166° |
| 2026-05-07 11:53 | 28.59297 | 31.87542 | 35040 ft | 467 kts | 166° |
| 2026-05-07 11:54 | 28.53042 | 31.89521 | 35039 ft | 465 kts | 166° |
| 2026-05-07 11:54 | 28.46803 | 31.91492 | 35046 ft | 468 kts | 166° |
| 2026-05-07 11:55 | 28.40509 | 31.93476 | 35043 ft | 465 kts | 166° |
| 2026-05-07 11:55 | 28.34278 | 31.95437 | 35037 ft | 465 kts | 166° |
| 2026-05-07 11:56 | 28.28009 | 31.97408 | 35031 ft | 464 kts | 166° |
| 2026-05-07 11:56 | 28.21813 | 31.99355 | 35029 ft | 465 kts | 166° |
| 2026-05-07 11:57 | 28.15548 | 32.01320 | 35032 ft | 465 kts | 166° |
| 2026-05-07 11:57 | 28.09295 | 32.03277 | 35033 ft | 467 kts | 166° |
| 2026-05-07 11:58 | 28.03046 | 32.05232 | 35037 ft | 464 kts | 166° |
| 2026-05-07 11:58 | 27.96819 | 32.07203 | 35039 ft | 465 kts | 166° |
| 2026-05-07 11:59 | 27.90615 | 32.09197 | 35027 ft | 464 kts | 166° |
| 2026-05-07 11:59 | 27.84386 | 32.11199 | 35025 ft | 464 kts | 166° |
| 2026-05-07 12:00 | 27.78159 | 32.13192 | 35023 ft | 465 kts | 166° |
| 2026-05-07 12:00 | 27.71920 | 32.15181 | 35020 ft | 464 kts | 166° |
| 2026-05-07 12:01 | 27.65688 | 32.17166 | 35017 ft | 467 kts | 166° |
| 2026-05-07 12:01 | 27.59456 | 32.19150 | 35031 ft | 465 kts | 166° |
| 2026-05-07 12:02 | 27.53214 | 32.21132 | 35025 ft | 464 kts | 166° |
| 2026-05-07 12:02 | 27.47021 | 32.23095 | 35017 ft | 462 kts | 166° |
| 2026-05-07 12:03 | 27.40829 | 32.25058 | 35033 ft | 463 kts | 166° |
| 2026-05-07 12:03 | 27.34605 | 32.27027 | 35013 ft | 462 kts | 166° |
| 2026-05-07 12:04 | 27.28447 | 32.28973 | 35023 ft | 462 kts | 166° |
| 2026-05-07 12:04 | 27.22239 | 32.30936 | 35020 ft | 461 kts | 167° |
| 2026-05-07 12:05 | 27.16089 | 32.32877 | 35013 ft | 461 kts | 166° |
| 2026-05-07 12:05 | 27.09890 | 32.34833 | 35008 ft | 461 kts | 167° |
| 2026-05-07 12:06 | 27.03728 | 32.36773 | 35004 ft | 460 kts | 167° |
| 2026-05-07 12:06 | 26.97545 | 32.38717 | 35002 ft | 460 kts | 167° |
| 2026-05-07 12:07 | 26.91378 | 32.40650 | 34990 ft | 461 kts | 167° |
| 2026-05-07 12:07 | 26.85210 | 32.42584 | 35002 ft | 460 kts | 167° |
| 2026-05-07 12:08 | 26.79015 | 32.44530 | 34986 ft | 461 kts | 167° |
| 2026-05-07 12:08 | 26.72831 | 32.46468 | 34985 ft | 461 kts | 167° |
| 2026-05-07 12:09 | 26.66642 | 32.48406 | 34991 ft | 462 kts | 167° |
| 2026-05-07 12:09 | 26.60416 | 32.50353 | 34988 ft | 460 kts | 168° |
| 2026-05-07 12:10 | 26.54265 | 32.52272 | 34980 ft | 460 kts | 168° |
| 2026-05-07 12:10 | 26.48108 | 32.54192 | 34986 ft | 458 kts | 168° |
| 2026-05-07 12:11 | 26.41927 | 32.56114 | 34971 ft | 460 kts | 168° |
| 2026-05-07 12:11 | 26.35775 | 32.58026 | 34976 ft | 460 kts | 168° |
| 2026-05-07 12:12 | 26.29601 | 32.59946 | 34952 ft | 458 kts | 168° |
| 2026-05-07 12:12 | 26.23469 | 32.61852 | 34940 ft | 458 kts | 168° |
| 2026-05-07 12:13 | 26.17332 | 32.63755 | 34842 ft | 458 kts | 169° |
| 2026-05-07 12:13 | 26.11193 | 32.65656 | 35040 ft | 457 kts | 169° |
| 2026-05-07 12:13 | 26.08121 | 32.66604 | 34930 ft | 457 kts | 169° |
| 2026-05-07 12:14 | 26.05088 | 32.67542 | 34917 ft | 452 kts | 169° |
| 2026-05-07 12:14 | 25.99054 | 32.69407 | 34911 ft | 454 kts | 169° |
| 2026-05-07 12:15 | 25.92945 | 32.71290 | 34895 ft | 454 kts | 169° |
| 2026-05-07 12:15 | 25.86821 | 32.73181 | 34898 ft | 453 kts | 169° |
| 2026-05-07 12:16 | 25.80786 | 32.75088 | 34896 ft | 455 kts | 166° |
| 2026-05-07 12:16 | 25.75064 | 32.78360 | 34896 ft | 469 kts | 144° |
| 2026-05-07 12:16 | 25.72733 | 32.80896 | 34913 ft | 474 kts | 133° |
| 2026-05-07 12:17 | 25.70730 | 32.83781 | 34909 ft | 476 kts | 129° |
| 2026-05-07 12:17 | 25.66997 | 32.89859 | 34920 ft | 478 kts | 126° |
| 2026-05-07 12:18 | 25.63370 | 32.96047 | 34744 ft | 478 kts | 126° |
| 2026-05-07 12:18 | 25.61571 | 32.99107 | 34947 ft | 478 kts | 126° |
| 2026-05-07 12:18 | 25.59737 | 33.02209 | 34937 ft | 479 kts | 127° |
| 2026-05-07 12:19 | 25.56087 | 33.08345 | 34929 ft | 476 kts | 127° |
| 2026-05-07 12:19 | 25.52449 | 33.14429 | 34928 ft | 477 kts | 127° |
| 2026-05-07 12:20 | 25.48764 | 33.20569 | 34939 ft | 479 kts | 127° |
| 2026-05-07 12:20 | 25.45083 | 33.26685 | 34927 ft | 477 kts | 127° |
| 2026-05-07 12:21 | 25.41423 | 33.32758 | 34926 ft | 478 kts | 127° |
| 2026-05-07 12:21 | 25.37728 | 33.38890 | 34935 ft | 476 kts | 127° |
| 2026-05-07 12:22 | 25.34045 | 33.44997 | 34940 ft | 478 kts | 128° |
| 2026-05-07 12:22 | 25.30385 | 33.51059 | 34930 ft | 477 kts | 128° |
| 2026-05-07 12:23 | 25.26703 | 33.57141 | 34937 ft | 477 kts | 128° |
| 2026-05-07 12:23 | 25.23015 | 33.63226 | 34938 ft | 476 kts | 128° |
| 2026-05-07 12:24 | 25.19345 | 33.69278 | 34955 ft | 476 kts | 129° |
| 2026-05-07 12:24 | 25.15674 | 33.75335 | 34951 ft | 474 kts | 129° |
| 2026-05-07 12:25 | 25.12005 | 33.81361 | 34954 ft | 474 kts | 129° |
| 2026-05-07 12:25 | 25.08339 | 33.87382 | 34961 ft | 473 kts | 129° |
| 2026-05-07 12:26 | 25.04678 | 33.93392 | 34959 ft | 471 kts | 129° |
| 2026-05-07 12:26 | 25.01015 | 33.99398 | 34970 ft | 471 kts | 129° |
| 2026-05-07 12:27 | 24.97387 | 34.05338 | 34965 ft | 470 kts | 130° |
| 2026-05-07 12:27 | 24.93720 | 34.11321 | 34967 ft | 468 kts | 129° |
| 2026-05-07 12:28 | 24.90079 | 34.17267 | 34965 ft | 471 kts | 129° |
| 2026-05-07 12:28 | 24.86390 | 34.23278 | 34965 ft | 471 kts | 130° |
| 2026-05-07 12:29 | 24.82744 | 34.29217 | 34965 ft | 469 kts | 130° |
| 2026-05-07 12:29 | 24.79097 | 34.35153 | 34972 ft | 470 kts | 130° |
| 2026-05-07 12:30 | 24.75429 | 34.41120 | 34966 ft | 469 kts | 130° |
| 2026-05-07 12:30 | 24.71759 | 34.47078 | 34964 ft | 470 kts | 130° |
| 2026-05-07 12:31 | 24.68092 | 34.53020 | 34955 ft | 468 kts | 130° |
| 2026-05-07 12:31 | 24.64443 | 34.58913 | 34946 ft | 470 kts | 130° |
| 2026-05-07 12:32 | 24.60761 | 34.64858 | 34947 ft | 470 kts | 130° |
| 2026-05-07 12:32 | 24.57090 | 34.70788 | 34944 ft | 467 kts | 131° |
| 2026-05-07 12:33 | 24.51590 | 34.79667 | 34939 ft | 468 kts | 131° |
| 2026-05-07 12:33 | 24.47928 | 34.85567 | 34935 ft | 470 kts | 131° |
| 2026-05-07 12:34 | 24.44288 | 34.91428 | 34940 ft | 467 kts | 131° |
| 2026-05-07 12:34 | 24.40608 | 34.97332 | 34941 ft | 467 kts | 131° |
| 2026-05-07 12:35 | 24.36934 | 35.03217 | 34956 ft | 468 kts | 131° |
| 2026-05-07 12:35 | 24.33281 | 35.09066 | 34948 ft | 467 kts | 131° |
| 2026-05-07 12:36 | 24.29594 | 35.14964 | 34933 ft | 468 kts | 131° |
| 2026-05-07 12:36 | 24.25903 | 35.20860 | 34919 ft | 469 kts | 131° |
| 2026-05-07 12:37 | 24.22219 | 35.26732 | 34894 ft | 468 kts | 131° |
| 2026-05-07 12:37 | 24.18521 | 35.32626 | 34890 ft | 470 kts | 131° |
| 2026-05-07 12:38 | 24.14821 | 35.38521 | 34889 ft | 467 kts | 131° |
| 2026-05-07 12:38 | 24.11138 | 35.44380 | 34879 ft | 473 kts | 131° |
| 2026-05-07 12:39 | 24.07415 | 35.50291 | 34873 ft | 471 kts | 131° |
| 2026-05-07 12:39 | 24.03689 | 35.56208 | 34875 ft | 472 kts | 132° |
| 2026-05-07 12:40 | 23.99985 | 35.62078 | 34871 ft | 470 kts | 132° |
| 2026-05-07 12:40 | 23.96239 | 35.68002 | 34870 ft | 473 kts | 132° |
| 2026-05-07 12:41 | 23.92518 | 35.73889 | 34867 ft | 469 kts | 133° |
| 2026-05-07 12:41 | 23.88814 | 35.79738 | 34879 ft | 470 kts | 133° |
| 2026-05-07 12:42 | 23.85078 | 35.85619 | 34869 ft | 470 kts | 133° |
| 2026-05-07 12:42 | 23.81359 | 35.91472 | 34872 ft | 470 kts | 133° |
| 2026-05-07 12:43 | 23.77641 | 35.97318 | 34868 ft | 468 kts | 133° |
| 2026-05-07 12:43 | 23.73892 | 36.03200 | 34863 ft | 470 kts | 132° |
| 2026-05-07 12:44 | 23.70197 | 36.09008 | 34862 ft | 469 kts | 133° |
| 2026-05-07 12:44 | 23.66464 | 36.14856 | 34862 ft | 468 kts | 133° |
| 2026-05-07 12:45 | 23.62761 | 36.20649 | 34860 ft | 467 kts | 133° |
| 2026-05-07 12:45 | 23.59026 | 36.26488 | 34861 ft | 466 kts | 133° |
| 2026-05-07 12:46 | 23.55329 | 36.32271 | 34859 ft | 467 kts | 133° |
| 2026-05-07 12:46 | 23.51616 | 36.38061 | 34856 ft | 466 kts | 133° |
| 2026-05-07 12:47 | 23.47899 | 36.43840 | 34855 ft | 466 kts | 133° |
| 2026-05-07 12:47 | 23.44182 | 36.49625 | 34854 ft | 467 kts | 133° |
| 2026-05-07 12:48 | 23.40469 | 36.55400 | 34854 ft | 465 kts | 133° |
| 2026-05-07 12:48 | 23.36748 | 36.61177 | 34854 ft | 466 kts | 133° |
| 2026-05-07 12:49 | 23.33036 | 36.66936 | 34850 ft | 465 kts | 134° |
| 2026-05-07 12:49 | 23.29336 | 36.72669 | 34847 ft | 464 kts | 134° |
| 2026-05-07 12:50 | 23.25619 | 36.78412 | 34848 ft | 463 kts | 134° |
| 2026-05-07 12:50 | 23.21934 | 36.84095 | 34850 ft | 462 kts | 134° |
| 2026-05-07 12:51 | 23.18220 | 36.89823 | 34857 ft | 461 kts | 134° |
| 2026-05-07 12:51 | 23.14519 | 36.95531 | 34859 ft | 463 kts | 134° |
| 2026-05-07 12:52 | 23.10824 | 37.01220 | 34860 ft | 464 kts | 134° |
| 2026-05-07 12:52 | 23.07129 | 37.06911 | 34859 ft | 463 kts | 134° |
| 2026-05-07 12:53 | 23.03407 | 37.12631 | 34857 ft | 465 kts | 134° |
| 2026-05-07 12:53 | 22.99676 | 37.18346 | 34853 ft | 462 kts | 134° |
| 2026-05-07 12:54 | 22.95965 | 37.24016 | 34852 ft | 463 kts | 134° |
| 2026-05-07 12:54 | 22.92225 | 37.29721 | 34850 ft | 461 kts | 134° |
| 2026-05-07 12:55 | 22.88511 | 37.35378 | 34843 ft | 460 kts | 134° |
| 2026-05-07 12:55 | 22.84817 | 37.40990 | 34569 ft | 461 kts | 134° |
| 2026-05-07 12:56 | 22.82941 | 37.43839 | 34305 ft | 458 kts | 134° |
| 2026-05-07 12:56 | 22.81106 | 37.46630 | 34040 ft | 454 kts | 133° |
| 2026-05-07 12:56 | 22.79286 | 37.49402 | 33778 ft | 450 kts | 133° |
| 2026-05-07 12:56 | 22.77482 | 37.52145 | 33519 ft | 449 kts | 133° |
| 2026-05-07 12:57 | 22.75683 | 37.54877 | 33257 ft | 449 kts | 133° |
| 2026-05-07 12:57 | 22.73869 | 37.57628 | 32998 ft | 449 kts | 133° |
| 2026-05-07 12:57 | 22.72059 | 37.60376 | 32732 ft | 446 kts | 133° |
| 2026-05-07 12:57 | 22.70274 | 37.63084 | 32472 ft | 443 kts | 133° |
| 2026-05-07 12:58 | 22.68479 | 37.65814 | 32211 ft | 442 kts | 133° |
| 2026-05-07 12:58 | 22.66708 | 37.68512 | 31945 ft | 441 kts | 133° |
| 2026-05-07 12:58 | 22.64927 | 37.71232 | 31685 ft | 439 kts | 133° |
| 2026-05-07 12:58 | 22.63172 | 37.73912 | 31426 ft | 438 kts | 133° |
| 2026-05-07 12:59 | 22.61424 | 37.76576 | 31163 ft | 437 kts | 133° |
| 2026-05-07 12:59 | 22.59664 | 37.79259 | 30906 ft | 436 kts | 133° |
| 2026-05-07 12:59 | 22.57904 | 37.81943 | 30645 ft | 434 kts | 133° |
| 2026-05-07 12:59 | 22.56184 | 37.84565 | 30389 ft | 431 kts | 133° |
| 2026-05-07 13:00 | 22.54449 | 37.87208 | 30128 ft | 430 kts | 133° |
| 2026-05-07 13:00 | 22.52723 | 37.89835 | 29869 ft | 429 kts | 133° |
| 2026-05-07 13:00 | 22.50987 | 37.92475 | 29614 ft | 427 kts | 133° |
| 2026-05-07 13:00 | 22.49261 | 37.95097 | 29354 ft | 427 kts | 132° |
| 2026-05-07 13:01 | 22.47562 | 37.97674 | 29100 ft | 426 kts | 132° |
| 2026-05-07 13:01 | 22.45838 | 38.00290 | 28836 ft | 423 kts | 133° |
| 2026-05-07 13:01 | 22.44133 | 38.02875 | 28576 ft | 421 kts | 132° |
| 2026-05-07 13:01 | 22.42455 | 38.05415 | 28320 ft | 419 kts | 133° |
| 2026-05-07 13:02 | 22.40761 | 38.07979 | 28061 ft | 418 kts | 132° |
| 2026-05-07 13:02 | 22.39084 | 38.10517 | 27800 ft | 416 kts | 132° |
| 2026-05-07 13:02 | 22.37392 | 38.13081 | 27534 ft | 413 kts | 132° |
| 2026-05-07 13:02 | 22.35726 | 38.15606 | 27277 ft | 412 kts | 131° |
| 2026-05-07 13:03 | 22.34078 | 38.18098 | 27016 ft | 409 kts | 131° |
| 2026-05-07 13:03 | 22.32424 | 38.20598 | 26755 ft | 408 kts | 131° |
| 2026-05-07 13:03 | 22.30780 | 38.23082 | 26502 ft | 407 kts | 131° |
| 2026-05-07 13:03 | 22.29133 | 38.25569 | 26248 ft | 404 kts | 131° |
| 2026-05-07 13:04 | 22.27506 | 38.28024 | 25992 ft | 403 kts | 131° |
| 2026-05-07 13:04 | 22.25884 | 38.30470 | 25735 ft | 402 kts | 131° |
| 2026-05-07 13:04 | 22.24265 | 38.32911 | 25477 ft | 399 kts | 131° |
| 2026-05-07 13:04 | 22.22650 | 38.35345 | 25223 ft | 398 kts | 131° |
| 2026-05-07 13:05 | 22.21046 | 38.37759 | 24875 ft | 399 kts | 131° |
| 2026-05-07 13:05 | 22.19407 | 38.40173 | 24392 ft | 396 kts | 131° |
| 2026-05-07 13:05 | 22.17743 | 38.42521 | 23892 ft | 394 kts | 132° |
| 2026-05-07 13:05 | 22.16071 | 38.44829 | 23394 ft | 392 kts | 132° |
| 2026-05-07 13:06 | 22.14391 | 38.47135 | 22895 ft | 390 kts | 132° |
| 2026-05-07 13:06 | 22.12716 | 38.49437 | 22402 ft | 388 kts | 132° |
| 2026-05-07 13:06 | 22.11049 | 38.51733 | 21910 ft | 387 kts | 132° |
| 2026-05-07 13:06 | 22.09396 | 38.54017 | 21409 ft | 385 kts | 131° |
| 2026-05-07 13:07 | 22.07771 | 38.56266 | 20919 ft | 384 kts | 131° |
| 2026-05-07 13:07 | 22.06128 | 38.58544 | 20418 ft | 382 kts | 131° |
| 2026-05-07 13:07 | 22.04509 | 38.60791 | 19919 ft | 380 kts | 132° |
| 2026-05-07 13:07 | 22.02902 | 38.63022 | 19480 ft | 375 kts | 131° |
| 2026-05-07 13:08 | 22.01319 | 38.65229 | 19082 ft | 371 kts | 131° |
| 2026-05-07 13:08 | 21.99743 | 38.67435 | 18609 ft | 367 kts | 131° |
| 2026-05-07 13:08 | 21.98213 | 38.69581 | 18157 ft | 364 kts | 131° |
| 2026-05-07 13:08 | 21.96674 | 38.71741 | 17688 ft | 361 kts | 131° |
| 2026-05-07 13:09 | 21.95153 | 38.73872 | 17228 ft | 358 kts | 131° |
| 2026-05-07 13:09 | 21.93633 | 38.76001 | 16773 ft | 354 kts | 131° |
| 2026-05-07 13:09 | 21.92146 | 38.78077 | 16320 ft | 351 kts | 131° |
| 2026-05-07 13:09 | 21.90656 | 38.80156 | 15871 ft | 347 kts | 131° |
| 2026-05-07 13:10 | 21.89190 | 38.82200 | 15432 ft | 344 kts | 131° |
| 2026-05-07 13:10 | 21.87735 | 38.84228 | 14993 ft | 341 kts | 131° |
| 2026-05-07 13:10 | 21.86300 | 38.86230 | 14498 ft | 340 kts | 130° |
| 2026-05-07 13:10 | 21.84865 | 38.88232 | 14253 ft | 331 kts | 130° |
| 2026-05-07 13:11 | 21.83478 | 38.90166 | 13764 ft | 331 kts | 130° |
| 2026-05-07 13:11 | 21.82072 | 38.92123 | 13332 ft | 328 kts | 130° |
| 2026-05-07 13:11 | 21.80700 | 38.94035 | 13180 ft | 316 kts | 130° |
| 2026-05-07 13:11 | 21.79386 | 38.95869 | 13061 ft | 302 kts | 130° |
| 2026-05-07 13:12 | 21.78166 | 38.97657 | 12984 ft | 291 kts | 125° |
| 2026-05-07 13:12 | 21.77198 | 38.99568 | 12636 ft | 292 kts | 116° |
| 2026-05-07 13:12 | 21.76544 | 39.01531 | 12802 ft | 265 kts | 108° |
| 2026-05-07 13:12 | 21.76212 | 39.03350 | 13199 ft | 233 kts | 100° |
| 2026-05-07 13:13 | 21.76096 | 39.05100 | 12632 ft | 248 kts | 94° |
| 2026-05-07 13:13 | 21.76144 | 39.07036 | 11490 ft | 281 kts | 89° |
| 2026-05-07 13:13 | 21.76305 | 39.09216 | 9660 ft | 322 kts | 86° |
| 2026-05-07 13:13 | 21.76320 | 39.11607 | 8913 ft | 311 kts | 103° |
| 2026-05-07 13:14 | 21.75634 | 39.13622 | 9205 ft | 266 kts | 118° |
| 2026-05-07 13:14 | 21.74845 | 39.15270 | 9569 ft | 230 kts | 118° |
| 2026-05-07 13:14 | 21.74252 | 39.16800 | 9873 ft | 220 kts | 111° |
| 2026-05-07 13:14 | 21.73799 | 39.18447 | 9909 ft | 236 kts | 106° |
| 2026-05-07 13:15 | 21.73443 | 39.20164 | 9879 ft | 234 kts | 104° |
| 2026-05-07 13:15 | 21.73121 | 39.21879 | 9863 ft | 232 kts | 104° |
| 2026-05-07 13:15 | 21.72785 | 39.23563 | 9658 ft | 227 kts | 108° |
| 2026-05-07 13:15 | 21.72169 | 39.25048 | 9428 ft | 214 kts | 133° |
| 2026-05-07 13:16 | 21.71007 | 39.26014 | 8979 ft | 209 kts | 160° |
| 2026-05-07 13:16 | 21.69661 | 39.26528 | 8633 ft | 206 kts | 163° |
| 2026-05-07 13:16 | 21.68294 | 39.27054 | 8214 ft | 207 kts | 161° |
| 2026-05-07 13:16 | 21.66967 | 39.27593 | 7883 ft | 204 kts | 161° |
| 2026-05-07 13:17 | 21.65636 | 39.28128 | 7542 ft | 202 kts | 161° |
| 2026-05-07 13:17 | 21.64315 | 39.28654 | 7258 ft | 201 kts | 161° |
| 2026-05-07 13:17 | 21.62995 | 39.29174 | 6949 ft | 202 kts | 161° |
| 2026-05-07 13:17 | 21.61694 | 39.29685 | 6708 ft | 199 kts | 160° |
| 2026-05-07 13:18 | 21.60388 | 39.30196 | 6407 ft | 199 kts | 161° |
| 2026-05-07 13:18 | 21.59090 | 39.30704 | 6137 ft | 197 kts | 161° |
| 2026-05-07 13:18 | 21.57790 | 39.31214 | 5889 ft | 196 kts | 161° |
| 2026-05-07 13:18 | 21.56538 | 39.31706 | 5717 ft | 188 kts | 161° |
| 2026-05-07 13:19 | 21.55306 | 39.32188 | 5468 ft | 186 kts | 161° |
| 2026-05-07 13:19 | 21.54089 | 39.32664 | 5181 ft | 186 kts | 161° |
| 2026-05-07 13:19 | 21.52873 | 39.33141 | 4886 ft | 187 kts | 160° |
| 2026-05-07 13:19 | 21.51638 | 39.33626 | 4573 ft | 188 kts | 162° |
| 2026-05-07 13:20 | 21.50413 | 39.34105 | 4297 ft | 189 kts | 160° |
| 2026-05-07 13:20 | 21.49170 | 39.34592 | 4017 ft | 189 kts | 161° |
| 2026-05-07 13:20 | 21.47931 | 39.35077 | 3729 ft | 190 kts | 161° |
| 2026-05-07 13:20 | 21.46679 | 39.35569 | 3444 ft | 190 kts | 161° |
| 2026-05-07 13:21 | 21.45432 | 39.36057 | 3171 ft | 189 kts | 161° |
| 2026-05-07 13:21 | 21.44192 | 39.36538 | 2975 ft | 188 kts | 161° |
| 2026-05-07 13:21 | 21.42977 | 39.37011 | 2965 ft | 188 kts | 160° |
| 2026-05-07 13:21 | 21.41719 | 39.37501 | 2966 ft | 193 kts | 165° |
| 2026-05-07 13:22 | 21.40405 | 39.37495 | 2964 ft | 188 kts | 205° |
| 2026-05-07 13:22 | 21.39389 | 39.36660 | 2976 ft | 184 kts | 235° |
| 2026-05-07 13:22 | 21.38767 | 39.35460 | 2887 ft | 184 kts | 253° |
| 2026-05-07 13:22 | 21.38614 | 39.34130 | 2737 ft | 175 kts | 283° |
| 2026-05-07 13:23 | 21.39124 | 39.33011 | 2780 ft | 169 kts | 315° |
| 2026-05-07 13:23 | 21.40084 | 39.32260 | 2808 ft | 172 kts | 328° |
| 2026-05-07 13:23 | 21.41099 | 39.31562 | 2796 ft | 171 kts | 325° |
| 2026-05-07 13:23 | 21.42072 | 39.30832 | 2797 ft | 172 kts | 324° |
| 2026-05-07 13:24 | 21.43057 | 39.30083 | 2794 ft | 170 kts | 324° |
| 2026-05-07 13:24 | 21.44032 | 39.29349 | 2796 ft | 171 kts | 324° |
| 2026-05-07 13:24 | 21.45017 | 39.28608 | 2767 ft | 175 kts | 324° |
| 2026-05-07 13:24 | 21.46006 | 39.27864 | 2625 ft | 172 kts | 324° |
| 2026-05-07 13:25 | 21.46996 | 39.27119 | 2439 ft | 170 kts | 325° |
| 2026-05-07 13:25 | 21.47941 | 39.26406 | 2230 ft | 166 kts | 325° |
| 2026-05-07 13:25 | 21.48888 | 39.25693 | 2038 ft | 160 kts | 325° |
| 2026-05-07 13:25 | 21.49779 | 39.25022 | 2035 ft | 157 kts | 324° |
| 2026-05-07 13:26 | 21.50716 | 39.24366 | 2049 ft | 165 kts | 333° |
| 2026-05-07 13:26 | 21.51796 | 39.23904 | 2047 ft | 164 kts | 338° |
| 2026-05-07 13:26 | 21.52854 | 39.23473 | 2049 ft | 162 kts | 338° |
| 2026-05-07 13:26 | 21.53876 | 39.23058 | 2049 ft | 155 kts | 338° |
| 2026-05-07 13:27 | 21.54882 | 39.22659 | 2055 ft | 153 kts | 339° |
| 2026-05-07 13:27 | 21.55893 | 39.22257 | 2052 ft | 152 kts | 339° |
| 2026-05-07 13:27 | 21.56889 | 39.21864 | 2019 ft | 153 kts | 339° |
| 2026-05-07 13:27 | 21.57861 | 39.21483 | 1847 ft | 147 kts | 339° |
| 2026-05-07 13:28 | 21.58784 | 39.21122 | 1618 ft | 131 kts | 339° |
| 2026-05-07 13:28 | 21.59622 | 39.20793 | 1460 ft | 125 kts | 339° |
| 2026-05-07 13:28 | 21.60462 | 39.20463 | 1340 ft | 130 kts | 339° |
| 2026-05-07 13:28 | 21.61322 | 39.20127 | 1129 ft | 131 kts | 338° |
| 2026-05-07 13:29 | 21.62169 | 39.19797 | 974 ft | 130 kts | 339° |
| 2026-05-07 13:29 | 21.63022 | 39.19463 | 814 ft | 133 kts | 338° |
| 2026-05-07 13:29 | 21.63892 | 39.19123 | 636 ft | 132 kts | 338° |
| 2026-05-07 13:29 | 21.64769 | 39.18779 | 471 ft | 134 kts | 337° |
| 2026-05-07 13:30 | 21.65649 | 39.18435 | 288 ft | 135 kts | 338° |
| 2026-05-07 13:30 | 21.66537 | 39.18099 | 129 ft | 133 kts | 336° |
| 2026-05-07 13:30 | 21.67423 | 39.17760 | 59 ft | 139 kts | 339° |
| 2026-05-07 13:30 | 21.68193 | 39.17427 | 57 ft | 90 kts | 339° |
| 2026-05-07 13:31 | 21.68638 | 39.17254 | 57 ft | 44 kts | 340° |
| 2026-05-07 13:31 | 21.68791 | 39.17161 | 57 ft | 0 kts | 322° |
| 2026-05-07 13:31 | 21.68795 | 39.17158 | 57 ft | 1 kts | 322° |
| 2026-05-07 13:31 | 21.68805 | 39.17149 | 57 ft | 2 kts | 322° |
| 2026-05-07 13:32 | 21.68819 | 39.17137 | 57 ft | 2 kts | 322° |
| 2026-05-07 13:32 | 21.68835 | 39.17124 | 57 ft | 3 kts | 321° |
| 2026-05-07 13:32 | 21.68852 | 39.17109 | 57 ft | 3 kts | 317° |
| 2026-05-07 13:32 | 21.68868 | 39.17093 | 57 ft | 3 kts | 316° |
| 2026-05-07 13:33 | 21.68885 | 39.17077 | 57 ft | 3 kts | 316° |
| 2026-05-07 13:33 | 21.68903 | 39.17056 | 57 ft | 6 kts | 309° |
| 2026-05-07 13:33 | 21.68976 | 39.16957 | 57 ft | 18 kts | 307° |
| 2026-05-07 13:33 | 21.69059 | 39.16865 | 57 ft | 16 kts | 335° |
| 2026-05-07 13:34 | 21.69166 | 39.16821 | 57 ft | 15 kts | 338° |
| 2026-05-07 13:34 | 21.69239 | 39.16685 | 57 ft | 10 kts | 241° |
| 2026-05-07 13:34 | 21.69196 | 39.16585 | 57 ft | 16 kts | 248° |
| 2026-05-07 13:35 | 21.69158 | 39.16470 | 57 ft | 15 kts | 252° |
| 2026-05-07 13:35 | 21.69125 | 39.16360 | 57 ft | 14 kts | 250° |
| 2026-05-07 13:35 | 21.69086 | 39.16253 | 57 ft | 19 kts | 248° |
| 2026-05-07 13:35 | 21.69033 | 39.16092 | 57 ft | 23 kts | 253° |
| 2026-05-07 13:36 | 21.68972 | 39.15937 | 57 ft | 21 kts | 249° |
| 2026-05-07 13:36 | 21.68918 | 39.15787 | 57 ft | 21 kts | 250° |
| 2026-05-07 13:36 | 21.68869 | 39.15642 | 57 ft | 20 kts | 251° |
| 2026-05-07 13:36 | 21.68856 | 39.15598 | 57 ft | 0 kts | 253° |
| 2026-05-07 13:37 | 21.68853 | 39.15589 | 57 ft | 1 kts | 253° |
| 2026-05-07 13:37 | 21.68848 | 39.15574 | 57 ft | 2 kts | 253° |
| 2026-05-07 13:37 | 21.68834 | 39.15523 | 57 ft | 10 kts | 253° |
| 2026-05-07 13:37 | 21.68810 | 39.15448 | 57 ft | 12 kts | 246° |
| 2026-05-07 13:38 | 21.68744 | 39.15278 | 57 ft | 28 kts | 249° |
| 2026-05-07 13:38 | 21.68672 | 39.15083 | 57 ft | 27 kts | 251° |
| 2026-05-07 13:38 | 21.68611 | 39.14892 | 56 ft | 26 kts | 250° |
| 2026-05-07 13:38 | 21.68553 | 39.14722 | 56 ft | 22 kts | 249° |
| 2026-05-07 13:39 | 21.68496 | 39.14570 | 56 ft | 21 kts | 249° |
| 2026-05-07 13:39 | 21.68446 | 39.14420 | 56 ft | 20 kts | 250° |
| 2026-05-07 13:39 | 21.68399 | 39.14278 | 56 ft | 19 kts | 250° |
| 2026-05-07 13:39 | 21.68353 | 39.14146 | 56 ft | 18 kts | 249° |
| 2026-05-07 13:40 | 21.68305 | 39.14026 | 56 ft | 17 kts | 247° |
| 2026-05-07 13:40 | 21.68262 | 39.13908 | 56 ft | 16 kts | 251° |
| 2026-05-07 13:40 | 21.68228 | 39.13794 | 56 ft | 15 kts | 249° |
| 2026-05-07 13:40 | 21.68155 | 39.13747 | 56 ft | 12 kts | 170° |
| 2026-05-07 13:41 | 21.68076 | 39.13770 | 56 ft | 11 kts | 159° |
| 2026-05-07 13:41 | 21.68007 | 39.13798 | 56 ft | 10 kts | 157° |
| 2026-05-07 13:41 | 21.67946 | 39.13828 | 56 ft | 9 kts | 155° |
| 2026-05-07 13:41 | 21.67867 | 39.13877 | 56 ft | 24 kts | 127° |
| 2026-05-07 13:42 | 21.67856 | 39.13974 | 56 ft | 11 kts | 43° |
| 2026-05-07 13:42 | 21.67900 | 39.14051 | 56 ft | 19 kts | 66° |
| 2026-05-07 13:42 | 21.67949 | 39.14191 | 56 ft | 19 kts | 71° |
| 2026-05-07 13:42 | 21.67994 | 39.14326 | 56 ft | 18 kts | 70° |
| 2026-05-07 13:43 | 21.68038 | 39.14451 | 56 ft | 16 kts | 69° |
| 2026-05-07 13:43 | 21.68080 | 39.14563 | 56 ft | 15 kts | 68° |
| 2026-05-07 13:43 | 21.68114 | 39.14675 | 56 ft | 19 kts | 78° |
| 2026-05-07 13:43 | 21.68179 | 39.14863 | 56 ft | 27 kts | 66° |
| 2026-05-07 13:44 | 21.68151 | 39.15007 | 56 ft | 9 kts | 147° |
| 2026-05-07 13:44 | 21.68118 | 39.15023 | 56 ft | 4 kts | 186° |
| 2026-05-07 13:44 | 21.68096 | 39.15009 | 56 ft | 2 kts | 246° |
| 2026-05-07 13:44 | 21.68098 | 39.14989 | 56 ft | 2 kts | 290° |
| 2026-05-07 13:45 | 21.68102 | 39.14978 | 56 ft | 0 kts | 294° |